createdAt,value
2022-09-12T04:03:10.531Z,101056.00
2022-09-12T04:05:38.986Z,101065.00
2022-09-12T04:08:07.216Z,101066.00
2022-09-12T04:10:35.168Z,101069.00
2022-09-12T04:13:03.153Z,101070.00
2022-09-12T04:15:32.322Z,101059.00
2022-09-12T04:18:05.038Z,101070.00
2022-09-12T04:20:35.181Z,101064.00
2022-09-12T04:23:03.129Z,101066.00
2022-09-12T04:25:31.418Z,101069.00
2022-09-12T04:27:59.351Z,101065.00
2022-09-12T04:30:27.334Z,101066.00
2022-09-12T04:32:55.296Z,101067.00
2022-09-12T04:35:23.284Z,101060.00
2022-09-12T04:37:52.672Z,101054.00
2022-09-12T04:40:20.877Z,101057.00
2022-09-12T04:42:48.891Z,101056.00
2022-09-12T04:45:17.029Z,101051.00
2022-09-12T04:47:46.668Z,101050.00
2022-09-12T04:50:14.919Z,101061.00
2022-09-12T04:52:42.922Z,101060.00
2022-09-12T04:55:12.248Z,101069.00
2022-09-12T04:57:40.232Z,101053.00
2022-09-12T05:00:13.102Z,101065.00
2022-09-12T05:02:41.508Z,101062.00
2022-09-12T05:05:11.479Z,101067.00
2022-09-12T05:07:39.444Z,101056.00
2022-09-12T05:10:09.609Z,101062.00
2022-09-12T05:12:39.150Z,101064.00
2022-09-12T05:15:09.316Z,101050.00
2022-09-12T05:17:37.364Z,101063.00
2022-09-12T05:20:06.130Z,101065.00
2022-09-12T05:22:34.123Z,101064.00
2022-09-12T05:25:02.173Z,101074.00
2022-09-12T05:27:30.196Z,101073.00
2022-09-12T05:29:59.587Z,101063.00
2022-09-12T05:32:27.605Z,101060.00
2022-09-12T05:34:55.917Z,101087.00
2022-09-12T05:37:23.997Z,101076.00
2022-09-12T05:39:52.842Z,101075.00
2022-09-12T05:42:20.932Z,101073.00
2022-09-12T05:44:48.857Z,101081.00
2022-09-12T05:47:18.849Z,101085.00
2022-09-12T05:49:47.900Z,101087.00
2022-09-12T05:52:16.149Z,101086.00
2022-09-12T05:54:44.164Z,101095.00
2022-09-12T05:57:12.295Z,101090.00
2022-09-12T05:59:40.297Z,101094.00
2022-09-12T06:02:10.128Z,101094.00
2022-09-12T06:04:41.871Z,101101.00
2022-09-12T06:07:10.361Z,101096.00
2022-09-12T06:09:38.414Z,101101.00
2022-09-12T06:12:07.644Z,101096.00
2022-09-12T06:14:36.205Z,101101.00
2022-09-12T06:17:04.434Z,101095.00
2022-09-12T06:19:32.569Z,101096.00
2022-09-12T06:22:01.876Z,101107.00
2022-09-12T06:24:29.824Z,101105.00
2022-09-12T06:26:57.807Z,101104.00
2022-09-12T06:29:25.913Z,101095.00
2022-09-12T06:31:54.127Z,101110.00
2022-09-12T06:34:22.181Z,101115.00
2022-09-12T06:36:51.080Z,101110.00
2022-09-12T06:39:23.614Z,101118.00
2022-09-12T06:41:53.538Z,101115.00
2022-09-12T06:44:23.715Z,101117.00
2022-09-12T06:46:53.586Z,101119.00
2022-09-12T06:49:21.556Z,101124.00
2022-09-12T06:51:49.648Z,101127.00
2022-09-12T06:54:18.103Z,101125.00
2022-09-12T06:56:47.367Z,101113.00
2022-09-12T06:59:15.351Z,101106.00
2022-09-12T07:01:43.472Z,101118.00
2022-09-12T07:04:12.473Z,101113.00
2022-09-12T07:06:44.441Z,101108.00
2022-09-12T07:09:16.264Z,101111.00
2022-09-12T07:11:45.988Z,101109.00
2022-09-12T07:14:15.978Z,101096.00
2022-09-12T07:16:44.904Z,101105.00
2022-09-12T07:19:13.696Z,101108.00
2022-09-12T07:21:42.419Z,101113.00
2022-09-12T07:24:11.749Z,101116.00
2022-09-12T07:26:41.899Z,101109.00
2022-09-12T07:32:06.631Z,101111.00
2022-09-12T07:34:35.580Z,101114.00
2022-09-12T07:37:03.802Z,101116.00
2022-09-12T07:39:32.327Z,101111.00
2022-09-12T07:42:00.383Z,101099.00
2022-09-12T07:44:30.144Z,101112.00
2022-09-12T07:46:58.133Z,101111.00
2022-09-12T07:49:26.132Z,101123.00
2022-09-12T07:51:54.153Z,101119.00
2022-09-12T07:54:22.529Z,101116.00
2022-09-12T07:56:50.605Z,101117.00
2022-09-12T07:59:30.213Z,101117.00
2022-09-12T08:02:16.517Z,101127.00
2022-09-12T08:04:45.458Z,101125.00
2022-09-12T08:07:13.415Z,101130.00
2022-09-12T08:09:41.380Z,101127.00
2022-09-12T08:12:10.125Z,101117.00
2022-09-12T08:14:38.153Z,101122.00
2022-09-12T08:17:07.632Z,101127.00
2022-09-12T08:19:35.508Z,101131.00
2022-09-12T08:22:04.684Z,101129.00
2022-09-12T08:24:33.557Z,101118.00
2022-09-12T08:27:01.545Z,101124.00
2022-09-12T08:29:29.732Z,101127.00
2022-09-12T08:31:57.680Z,101125.00
2022-09-12T08:34:27.068Z,101122.00
2022-09-12T08:36:55.104Z,101125.00
2022-09-12T08:39:24.553Z,101130.00
2022-09-12T08:42:02.995Z,101127.00
2022-09-12T08:45:00.471Z,101134.00
2022-09-12T08:47:33.375Z,101131.00
2022-09-12T08:50:15.147Z,101125.00
2022-09-12T08:52:55.804Z,101127.00
2022-09-12T08:55:37.107Z,101111.00
2022-09-12T08:58:15.005Z,101132.00
2022-09-12T09:00:53.907Z,101136.00
2022-09-12T09:04:05.769Z,101132.00
2022-09-12T09:06:58.256Z,101127.00
2022-09-12T09:09:42.905Z,101128.00
2022-09-12T09:12:26.660Z,101122.00
2022-09-12T09:15:13.049Z,101120.00
2022-09-12T09:17:44.741Z,101129.00
2022-09-12T09:20:24.094Z,101117.00
2022-09-12T09:22:59.712Z,101131.00
2022-09-12T09:25:41.329Z,101125.00
2022-09-12T09:28:17.626Z,101119.00
2022-09-12T09:30:46.313Z,101115.00
2022-09-12T09:33:23.679Z,101118.00
2022-09-12T09:36:06.484Z,101111.00
2022-09-12T09:38:48.817Z,101115.00
2022-09-12T09:41:44.584Z,101120.00
2022-09-12T09:44:12.680Z,101116.00
2022-09-12T09:46:40.744Z,101112.00
2022-09-12T09:49:14.362Z,101115.00
2022-09-12T09:51:43.709Z,101116.00
2022-09-12T09:54:21.719Z,101112.00
2022-09-12T09:56:50.139Z,101116.00
2022-09-12T09:59:21.317Z,101116.00
2022-09-12T10:01:54.785Z,101112.00
2022-09-12T10:04:26.091Z,101115.00
2022-09-12T10:06:57.588Z,101116.00
2022-09-12T10:09:30.316Z,101107.00
2022-09-12T10:11:58.665Z,101111.00
2022-09-12T10:14:38.661Z,101100.00
2022-09-12T10:17:34.186Z,101110.00
2022-09-12T10:20:20.478Z,101109.00
2022-09-12T10:22:50.645Z,101107.00
2022-09-12T10:25:21.267Z,101107.00
2022-09-12T10:27:56.380Z,101110.00
2022-09-12T10:30:28.215Z,101102.00
2022-09-12T10:33:07.137Z,101108.00
2022-09-12T10:35:47.144Z,101086.00
2022-09-12T10:38:24.646Z,101087.00
2022-09-12T10:41:02.161Z,101095.00
2022-09-12T10:43:37.278Z,101069.00
2022-09-12T10:46:31.129Z,101086.00
2022-09-12T10:49:24.331Z,101089.00
2022-09-12T10:51:54.072Z,101080.00
2022-09-12T10:54:25.982Z,101078.00
2022-09-12T10:57:30.955Z,101082.00
2022-09-12T11:00:17.740Z,101079.00
2022-09-12T11:02:58.400Z,101078.00
2022-09-12T11:05:57.068Z,101077.00
2022-09-12T11:08:59.314Z,101087.00
2022-09-12T11:11:46.693Z,101080.00
2022-09-12T11:14:32.121Z,101088.00
2022-09-12T11:17:17.687Z,101090.00
2022-09-12T11:20:04.436Z,101086.00
2022-09-12T11:23:10.299Z,101084.00
2022-09-12T11:25:47.069Z,101083.00
2022-09-12T11:28:32.106Z,101085.00
2022-09-12T11:31:53.491Z,101091.00
2022-09-12T11:34:33.967Z,101085.00
2022-09-12T11:37:24.231Z,101086.00
2022-09-12T11:39:56.009Z,101080.00
2022-09-12T11:42:32.609Z,101081.00
2022-09-12T11:45:08.914Z,101075.00
2022-09-12T11:47:39.078Z,101081.00
2022-09-12T11:50:23.326Z,101064.00
2022-09-12T11:52:53.098Z,101070.00
2022-09-12T11:55:27.996Z,101072.00
2022-09-12T11:57:58.846Z,101075.00
2022-09-12T12:00:33.181Z,101068.00
2022-09-12T12:03:13.377Z,101060.00
2022-09-12T12:05:52.153Z,101062.00
2022-09-12T12:08:22.418Z,101053.00
2022-09-12T12:10:56.306Z,101056.00
2022-09-12T12:13:31.348Z,101046.00
2022-09-12T12:16:07.131Z,101056.00
2022-09-12T12:18:39.850Z,101054.00
2022-09-12T12:21:37.318Z,101052.00
2022-09-12T12:24:16.928Z,101046.00
2022-09-12T12:26:59.063Z,101054.00
2022-09-12T12:29:44.148Z,101042.00
2022-09-12T12:32:26.570Z,101038.00
2022-09-12T12:35:41.833Z,101029.00
2022-09-12T12:38:30.644Z,101047.00
2022-09-12T12:41:45.480Z,101049.00
2022-09-12T12:44:51.343Z,101040.00
2022-09-12T12:47:23.189Z,101051.00
2022-09-12T12:49:55.890Z,101059.00
2022-09-12T12:52:29.473Z,101048.00
2022-09-12T12:55:01.088Z,101058.00
2022-09-12T12:57:48.345Z,101054.00
2022-09-12T13:00:36.325Z,101049.00
2022-09-12T13:03:22.377Z,101045.00
2022-09-12T13:05:57.442Z,101059.00
2022-09-12T13:08:33.129Z,101055.00
2022-09-12T13:11:07.277Z,101049.00
2022-09-12T13:13:42.041Z,101046.00
2022-09-12T13:16:12.454Z,101031.00
2022-09-12T13:18:47.098Z,101041.00
2022-09-12T13:21:19.197Z,101043.00
2022-09-12T13:24:02.070Z,101039.00
2022-09-12T13:26:35.673Z,101037.00
2022-09-12T13:29:17.273Z,101031.00
2022-09-12T13:31:47.769Z,101025.00
2022-09-12T13:34:22.399Z,101024.00
2022-09-12T13:37:24.369Z,101020.00
2022-09-12T13:40:11.519Z,101026.00
2022-09-12T13:42:41.955Z,101018.00
2022-09-12T13:45:19.740Z,101016.00
2022-09-12T13:47:53.319Z,101010.00
2022-09-12T13:50:27.676Z,101009.00
2022-09-12T13:53:00.194Z,101006.00
2022-09-12T13:55:35.268Z,100997.00
2022-09-12T13:58:05.901Z,101005.00
2022-09-12T14:00:37.234Z,100998.00
2022-09-12T14:03:45.932Z,100991.00
2022-09-12T14:06:16.518Z,100998.00
2022-09-12T14:08:46.866Z,100998.00
2022-09-12T14:11:27.173Z,100994.00
2022-09-12T14:13:56.667Z,101000.00
2022-09-12T14:16:28.324Z,100992.00
2022-09-12T14:18:57.039Z,100976.00
2022-09-12T14:21:37.152Z,100986.00
2022-09-12T14:24:08.420Z,100992.00
2022-09-12T14:26:40.289Z,100991.00
2022-09-12T14:29:12.629Z,100998.00
2022-09-12T14:31:41.247Z,100984.00
2022-09-12T14:34:15.732Z,100987.00
2022-09-12T14:36:49.051Z,100982.00
2022-09-12T14:39:25.403Z,100983.00
2022-09-12T14:42:07.141Z,100986.00
2022-09-12T14:44:36.848Z,100987.00
2022-09-12T14:47:16.358Z,100971.00
2022-09-12T14:49:44.783Z,100980.00
2022-09-12T14:52:28.684Z,100965.00
2022-09-12T14:54:59.586Z,100981.00
2022-09-12T14:57:38.847Z,100977.00
2022-09-12T15:00:23.956Z,100975.00
2022-09-12T15:02:54.192Z,100979.00
2022-09-12T15:05:28.542Z,100968.00
2022-09-12T15:08:00.693Z,100965.00
2022-09-12T15:10:33.013Z,100966.00
2022-09-12T15:13:19.555Z,100972.00
2022-09-12T15:15:51.027Z,100963.00
2022-09-12T15:18:20.608Z,100965.00
2022-09-12T15:20:52.085Z,100960.00
2022-09-12T15:23:33.654Z,100968.00
2022-09-12T15:26:01.788Z,100958.00
2022-09-12T15:28:32.939Z,100964.00
2022-09-12T15:31:08.237Z,100955.00
2022-09-12T15:33:36.364Z,100950.00
2022-09-12T15:36:05.038Z,100964.00
2022-09-12T15:38:34.181Z,100956.00
2022-09-12T15:41:02.101Z,100951.00
2022-09-12T15:43:31.350Z,100951.00
2022-09-12T15:46:00.143Z,100948.00
2022-09-12T15:48:28.712Z,100950.00
2022-09-12T15:51:01.333Z,100953.00
2022-09-12T15:53:29.517Z,100945.00
2022-09-12T15:55:57.546Z,100941.00
2022-09-12T15:58:25.705Z,100947.00
2022-09-12T16:00:55.043Z,100945.00
2022-09-12T16:03:26.684Z,100949.00
2022-09-12T16:05:58.096Z,100924.00
2022-09-12T16:08:27.167Z,100943.00
2022-09-12T16:10:59.315Z,100930.00
2022-09-12T16:13:27.696Z,100933.00
2022-09-12T16:16:00.289Z,100920.00
2022-09-12T16:18:29.435Z,100930.00
2022-09-12T16:20:58.752Z,100929.00
2022-09-12T16:23:26.775Z,100919.00
2022-09-12T16:25:58.864Z,100903.00
2022-09-12T16:28:27.193Z,100922.00
2022-09-12T16:31:02.884Z,100920.00
2022-09-12T16:33:32.715Z,100914.00
2022-09-12T16:36:06.006Z,100916.00
2022-09-12T16:38:35.807Z,100911.00
2022-09-12T16:41:05.157Z,100909.00
2022-09-12T16:43:35.321Z,100907.00
2022-09-12T16:46:07.299Z,100907.00
2022-09-12T16:48:36.446Z,100896.00
2022-09-12T16:51:07.655Z,100902.00
2022-09-12T16:53:38.559Z,100903.00
2022-09-12T16:56:07.617Z,100893.00
2022-09-12T16:58:41.754Z,100898.00
2022-09-12T17:01:16.802Z,100898.00
2022-09-12T17:03:45.235Z,100892.00
2022-09-12T17:06:16.547Z,100881.00
2022-09-12T17:08:47.761Z,100880.00
2022-09-12T17:11:19.423Z,100879.00
2022-09-12T17:14:08.098Z,100876.00
2022-09-12T17:16:40.255Z,100879.00
2022-09-12T17:19:10.214Z,100872.00
2022-09-12T17:21:38.746Z,100874.00
2022-09-12T17:24:07.103Z,100869.00
2022-09-12T17:26:35.198Z,100875.00
2022-09-12T17:29:03.713Z,100875.00
2022-09-12T17:31:32.436Z,100878.00
2022-09-12T17:34:03.219Z,100869.00
2022-09-12T17:36:32.100Z,100875.00
2022-09-12T17:39:02.583Z,100867.00
2022-09-12T17:41:32.915Z,100875.00
2022-09-12T17:44:03.458Z,100870.00
2022-09-12T17:46:37.980Z,100876.00
2022-09-12T17:49:11.603Z,100878.00
2022-09-12T17:51:40.695Z,100878.00
2022-09-12T17:54:12.157Z,100869.00
2022-09-12T17:56:41.005Z,100880.00
2022-09-12T17:59:14.726Z,100877.00
2022-09-12T18:02:00.676Z,100883.00
2022-09-12T18:04:30.957Z,100880.00
2022-09-12T18:07:00.255Z,100878.00
2022-09-12T18:09:29.073Z,100884.00
2022-09-12T18:11:57.423Z,100891.00
2022-09-12T18:14:26.266Z,100888.00
2022-09-12T18:16:56.979Z,100888.00
2022-09-12T18:19:26.554Z,100888.00
2022-09-12T18:21:56.528Z,100884.00
2022-09-12T18:24:24.880Z,100889.00
2022-09-12T18:26:52.869Z,100872.00
2022-09-12T18:29:20.896Z,100881.00
2022-09-12T18:31:49.123Z,100881.00
2022-09-12T18:34:18.251Z,100873.00
2022-09-12T18:36:49.511Z,100881.00
2022-09-12T18:39:20.015Z,100879.00
2022-09-12T18:41:50.026Z,100872.00
2022-09-12T18:44:18.201Z,100866.00
2022-09-12T18:46:46.253Z,100873.00
2022-09-12T18:49:15.023Z,100873.00
2022-09-12T18:51:43.792Z,100869.00
2022-09-12T18:54:15.427Z,100847.00
2022-09-12T18:56:45.766Z,100873.00
2022-09-12T18:59:14.746Z,100873.00
2022-09-12T19:01:43.947Z,100869.00
2022-09-12T19:04:16.290Z,100859.00
2022-09-12T19:06:47.025Z,100860.00
2022-09-12T19:09:17.843Z,100854.00
2022-09-12T19:11:49.928Z,100823.00
2022-09-12T19:14:22.506Z,100847.00
2022-09-12T19:16:52.145Z,100850.00
2022-09-12T19:19:20.519Z,100837.00
2022-09-12T19:21:48.845Z,100843.00
2022-09-12T19:24:17.312Z,100843.00
2022-09-12T19:26:46.701Z,100829.00
2022-09-12T19:29:16.586Z,100839.00
2022-09-12T19:31:44.860Z,100839.00
2022-09-12T19:34:14.199Z,100827.00
2022-09-12T19:36:47.123Z,100834.00
2022-09-12T19:39:17.370Z,100827.00
2022-09-12T19:41:47.825Z,100829.00
2022-09-12T19:44:15.908Z,100825.00
2022-09-12T19:46:43.985Z,100819.00
2022-09-12T19:49:13.528Z,100820.00
2022-09-12T19:51:42.156Z,100826.00
2022-09-12T19:54:11.020Z,100821.00
2022-09-12T19:56:39.184Z,100817.00
2022-09-12T19:59:08.789Z,100821.00
2022-09-12T20:01:37.489Z,100805.00
2022-09-12T20:04:06.818Z,100797.00
2022-09-12T20:06:34.949Z,100816.00
2022-09-12T20:09:03.270Z,100800.00
2022-09-12T20:11:31.366Z,100817.00
2022-09-12T20:13:59.361Z,100802.00
2022-09-12T20:16:30.014Z,100807.00
2022-09-12T20:19:01.385Z,100806.00
2022-09-12T20:21:32.971Z,100811.00
2022-09-12T20:24:03.714Z,100804.00
2022-09-12T20:26:32.131Z,100802.00
2022-09-12T20:29:00.777Z,100798.00
2022-09-12T20:31:30.962Z,100799.00
2022-09-12T20:33:59.220Z,100800.00
2022-09-12T20:36:27.706Z,100802.00
2022-09-12T20:38:59.895Z,100797.00
2022-09-12T20:41:30.662Z,100799.00
2022-09-12T20:43:59.305Z,100793.00
2022-09-12T20:46:29.854Z,100773.00
2022-09-12T20:48:58.712Z,100784.00
2022-09-12T20:51:29.661Z,100783.00
2022-09-12T20:53:59.068Z,100787.00
2022-09-12T20:56:29.004Z,100795.00
2022-09-12T20:58:57.568Z,100788.00
